createdAt,value
2019-02-26T00:00:34.392Z,84.70
2019-02-26T00:03:02.957Z,84.30
2019-02-26T00:05:30.795Z,82.90
2019-02-26T00:08:00.056Z,84.10
2019-02-26T00:10:28.980Z,86.10
2019-02-26T00:12:55.341Z,88.10
2019-02-26T00:15:22.033Z,86.80
2019-02-26T00:17:50.775Z,85.40
2019-02-26T00:20:17.674Z,83.40
2019-02-26T00:22:44.417Z,82.70
2019-02-26T00:25:12.860Z,82.60
2019-02-26T00:27:39.699Z,84.20
2019-02-26T00:30:14.363Z,85.70
2019-02-26T00:32:41.349Z,84.00
2019-02-26T00:35:08.073Z,83.10
2019-02-26T00:37:34.768Z,82.70
2019-02-26T00:40:01.398Z,82.30
2019-02-26T00:42:28.897Z,82.20
2019-02-26T00:44:58.269Z,82.90
2019-02-26T00:47:25.136Z,83.70
2019-02-26T00:49:53.449Z,83.50
2019-02-26T00:52:20.245Z,83.40
2019-02-26T00:54:46.880Z,83.00
2019-02-26T00:57:13.962Z,84.40
2019-02-26T00:59:41.254Z,84.20
2019-02-26T01:02:09.352Z,84.10
2019-02-26T01:04:35.980Z,84.40
2019-02-26T01:07:03.825Z,83.70
2019-02-26T01:09:31.906Z,84.20
2019-02-26T01:12:00.041Z,84.00
2019-02-26T01:14:26.920Z,83.40
2019-02-26T01:16:53.668Z,83.20
2019-02-26T01:19:20.473Z,83.70
2019-02-26T01:21:47.108Z,83.30
2019-02-26T01:24:13.763Z,83.50
2019-02-26T01:26:42.544Z,83.50
2019-02-26T01:29:08.888Z,83.50
2019-02-26T01:31:35.512Z,84.70
2019-02-26T01:34:02.341Z,86.10
2019-02-26T01:36:28.962Z,87.60
2019-02-26T01:38:55.590Z,86.50
2019-02-26T01:41:23.263Z,85.80
2019-02-26T01:43:50.935Z,85.90
2019-02-26T01:46:18.773Z,86.10
2019-02-26T01:48:45.638Z,85.10
2019-02-26T01:51:13.033Z,85.00
2019-02-26T01:53:39.652Z,84.80
2019-02-26T01:56:06.432Z,84.80
2019-02-26T01:58:33.571Z,84.10
2019-02-26T02:01:00.873Z,83.90
2019-02-26T02:03:28.403Z,84.80
2019-02-26T02:05:56.202Z,85.20
2019-02-26T02:08:24.860Z,84.70
2019-02-26T02:10:53.600Z,84.90
2019-02-26T02:15:55.157Z,85.80
2019-02-26T02:18:23.055Z,87.90
2019-02-26T02:20:50.256Z,88.50
2019-02-26T02:23:18.869Z,90.30
2019-02-26T02:25:45.695Z,90.30
2019-02-26T02:28:12.404Z,89.90
2019-02-26T02:30:39.197Z,89.60
2019-02-26T02:33:06.003Z,90.40
2019-02-26T02:35:32.640Z,90.20
2019-02-26T02:38:01.980Z,89.20
2019-02-26T02:40:27.980Z,90.00
2019-02-26T02:42:54.605Z,87.70
2019-02-26T02:45:21.441Z,86.70
2019-02-26T02:47:48.270Z,86.30
2019-02-26T02:50:17.576Z,86.80
2019-02-26T02:52:43.376Z,86.30
2019-02-26T02:55:12.990Z,85.90
2019-02-26T02:57:38.879Z,87.30
2019-02-26T03:00:13.936Z,86.90
2019-02-26T03:02:43.180Z,87.20
2019-02-26T03:05:10.610Z,89.30
2019-02-26T03:07:37.339Z,89.60
2019-02-26T03:10:09.646Z,87.60
2019-02-26T03:12:36.619Z,86.50
2019-02-26T03:15:08.030Z,85.70
2019-02-26T03:17:34.820Z,86.00
2019-02-26T03:20:04.730Z,85.90
2019-02-26T03:22:29.945Z,85.70
2019-02-26T03:24:57.479Z,87.50
2019-02-26T03:27:27.785Z,87.00
2019-02-26T03:29:56.245Z,89.90
2019-02-26T03:32:22.145Z,90.30
2019-02-26T03:34:48.742Z,90.60
2019-02-26T03:37:15.534Z,90.20
2019-02-26T03:39:42.150Z,90.20
2019-02-26T03:42:10.657Z,90.60
2019-02-26T03:44:37.576Z,91.30
2019-02-26T03:47:04.202Z,89.60
2019-02-26T03:49:30.869Z,87.20
2019-02-26T03:52:00.118Z,87.00
2019-02-26T03:54:25.981Z,87.30
2019-02-26T03:56:52.620Z,89.80
2019-02-26T03:59:19.280Z,90.20
2019-02-26T04:01:45.985Z,90.00
2019-02-26T04:04:12.865Z,89.40
2019-02-26T04:06:41.133Z,87.40
2019-02-26T04:09:08.580Z,88.90
2019-02-26T04:11:36.441Z,88.30
2019-02-26T04:14:03.084Z,86.90
2019-02-26T04:16:32.029Z,86.80
2019-02-26T04:18:58.293Z,86.70
2019-02-26T04:21:28.624Z,86.00
2019-02-26T04:23:55.276Z,90.50
2019-02-26T04:26:45.193Z,91.20
2019-02-26T04:29:24.210Z,91.20
2019-02-26T04:32:15.059Z,91.20
2019-02-26T04:34:44.675Z,90.40
2019-02-26T04:37:32.659Z,89.50
2019-02-26T04:40:13.992Z,89.30
2019-02-26T04:42:52.489Z,89.00
2019-02-26T04:45:43.398Z,90.50
2019-02-26T04:48:17.126Z,90.20
2019-02-26T04:50:44.521Z,90.60
2019-02-26T04:53:11.090Z,90.10
2019-02-26T04:55:59.697Z,91.50
2019-02-26T04:58:26.384Z,92.10
2019-02-26T05:00:53.158Z,93.10
2019-02-26T05:03:20.173Z,92.20
2019-02-26T05:05:51.420Z,92.70
2019-02-26T05:08:17.652Z,92.90
2019-02-26T05:10:46.229Z,93.00
2019-02-26T05:13:12.653Z,91.80
2019-02-26T05:15:39.445Z,91.60
2019-02-26T05:18:06.094Z,91.50
2019-02-26T05:20:34.103Z,90.30
2019-02-26T05:23:03.108Z,90.10
2019-02-26T05:25:31.492Z,90.00
2019-02-26T05:27:58.222Z,89.70
2019-02-26T05:30:24.881Z,89.50
2019-02-26T05:32:54.107Z,89.30
2019-02-26T05:35:22.626Z,89.20
2019-02-26T05:37:48.472Z,89.40
2019-02-26T05:40:18.738Z,90.10
2019-02-26T05:42:43.565Z,91.00
2019-02-26T05:45:10.337Z,91.70
2019-02-26T05:47:36.992Z,91.50
2019-02-26T05:50:09.062Z,91.30
2019-02-26T05:52:35.895Z,90.80
2019-02-26T05:55:03.407Z,91.70
2019-02-26T05:57:32.649Z,91.70
2019-02-26T06:00:08.113Z,90.50
2019-02-26T06:02:36.667Z,90.00
2019-02-26T06:05:03.487Z,90.20
2019-02-26T06:07:33.025Z,90.00
2019-02-26T06:09:59.393Z,89.30
2019-02-26T06:12:26.088Z,89.40
2019-02-26T06:14:53.951Z,90.20
2019-02-26T06:17:21.281Z,90.10
2019-02-26T06:19:49.571Z,90.20
2019-02-26T06:22:18.188Z,90.20
2019-02-26T06:24:44.762Z,90.90
2019-02-26T06:27:15.397Z,91.40
2019-02-26T06:29:39.994Z,91.10
2019-02-26T06:32:09.621Z,91.40
2019-02-26T06:34:37.463Z,90.70
2019-02-26T06:37:16.505Z,90.70
2019-02-26T06:39:43.525Z,90.60
2019-02-26T06:42:12.050Z,90.10
2019-02-26T06:44:38.826Z,90.10
2019-02-26T06:47:09.080Z,90.10
2019-02-26T06:49:35.945Z,90.00
2019-02-26T06:52:02.736Z,90.00
2019-02-26T06:54:31.751Z,90.20
2019-02-26T06:56:57.984Z,90.40
2019-02-26T06:59:34.932Z,90.50
2019-02-26T07:02:02.498Z,90.70
2019-02-26T07:04:30.130Z,90.40
2019-02-26T07:06:57.513Z,90.80
2019-02-26T07:09:25.573Z,90.90
2019-02-26T07:11:52.579Z,90.20
2019-02-26T07:14:19.627Z,86.00
2019-02-26T07:16:46.285Z,86.10
2019-02-26T07:19:14.203Z,84.70
2019-02-26T07:21:42.955Z,85.90
2019-02-26T07:24:10.096Z,87.30
2019-02-26T07:26:38.725Z,86.70
2019-02-26T07:29:05.858Z,87.00
2019-02-26T07:31:35.529Z,87.00
2019-02-26T07:34:03.199Z,87.30
2019-02-26T07:36:29.942Z,87.20
2019-02-26T07:38:56.747Z,89.70
2019-02-26T07:41:25.430Z,90.20
2019-02-26T07:43:54.075Z,89.70
2019-02-26T07:46:21.462Z,87.70
2019-02-26T07:48:53.560Z,89.20
2019-02-26T07:51:16.912Z,90.00
2019-02-26T07:53:48.510Z,87.40
2019-02-26T07:56:12.012Z,86.30
2019-02-26T07:58:40.710Z,84.30
2019-02-26T08:01:07.283Z,84.20
2019-02-26T08:03:34.085Z,83.10
2019-02-26T08:06:04.825Z,84.50
2019-02-26T08:08:29.321Z,85.80
2019-02-26T08:10:55.958Z,83.10
2019-02-26T08:13:24.370Z,83.70
2019-02-26T08:15:52.674Z,86.20
2019-02-26T08:18:19.605Z,86.10
2019-02-26T08:20:46.245Z,86.10
2019-02-26T08:23:14.639Z,85.90
2019-02-26T08:25:41.360Z,82.70
2019-02-26T08:28:08.093Z,83.20
2019-02-26T08:30:34.788Z,82.60
2019-02-26T08:33:04.283Z,84.10
2019-02-26T08:35:29.992Z,82.10
2019-02-26T08:37:56.612Z,80.70
2019-02-26T08:40:24.599Z,80.80
2019-02-26T08:42:51.335Z,80.70
2019-02-26T08:45:23.046Z,80.10
2019-02-26T08:47:49.432Z,81.80
2019-02-26T08:50:16.112Z,81.50
2019-02-26T08:52:44.856Z,80.90
2019-02-26T08:55:18.283Z,81.10
2019-02-26T08:57:43.468Z,79.20
2019-02-26T09:00:18.368Z,79.80
2019-02-26T09:02:46.117Z,79.70
2019-02-26T09:05:14.429Z,78.70
2019-02-26T09:07:43.307Z,78.20
2019-02-26T09:10:15.685Z,79.20
2019-02-26T09:12:46.129Z,79.20
2019-02-26T09:15:18.548Z,79.30
2019-02-26T09:17:45.170Z,80.00
2019-02-26T09:20:14.687Z,78.60
2019-02-26T09:22:45.730Z,76.80
2019-02-26T09:25:10.814Z,76.30
2019-02-26T09:27:42.693Z,77.10
2019-02-26T09:30:11.718Z,77.50
2019-02-26T09:32:39.834Z,76.50
2019-02-26T09:35:11.672Z,76.40
2019-02-26T09:37:38.345Z,75.50
2019-02-26T09:40:08.323Z,76.30
2019-02-26T09:42:34.970Z,76.40
2019-02-26T09:45:01.642Z,75.20
2019-02-26T09:47:30.444Z,73.80
2019-02-26T09:49:58.386Z,73.50
2019-02-26T09:52:27.600Z,74.10
2019-02-26T09:54:55.235Z,74.70
2019-02-26T09:57:23.393Z,74.10
2019-02-26T09:59:52.184Z,72.10
2019-02-26T10:02:20.023Z,71.70
2019-02-26T10:04:49.449Z,71.30
2019-02-26T10:07:15.884Z,71.00
2019-02-26T10:09:45.918Z,69.70
2019-02-26T10:12:13.511Z,70.70
2019-02-26T10:14:39.660Z,69.00
2019-02-26T10:17:06.470Z,68.20
2019-02-26T10:19:33.760Z,67.50
2019-02-26T10:22:03.540Z,68.00
2019-02-26T10:24:32.167Z,67.60
2019-02-26T10:27:01.097Z,67.30
2019-02-26T10:29:27.293Z,65.00
2019-02-26T10:31:56.076Z,64.10
2019-02-26T10:34:28.172Z,64.90
2019-02-26T10:36:51.884Z,63.50
2019-02-26T10:39:20.711Z,63.30
2019-02-26T10:41:47.316Z,63.90
2019-02-26T10:44:14.746Z,63.50
2019-02-26T10:46:44.484Z,62.30
2019-02-26T10:49:12.347Z,63.40
2019-02-26T10:51:42.409Z,62.50
2019-02-26T10:54:09.652Z,61.60
2019-02-26T10:56:39.193Z,60.20
2019-02-26T10:59:06.815Z,59.60
2019-02-26T11:01:33.748Z,60.10
2019-02-26T11:04:00.756Z,59.00
2019-02-26T11:06:27.470Z,59.20
2019-02-26T11:08:55.849Z,59.70
2019-02-26T11:11:22.812Z,59.00
2019-02-26T11:13:53.228Z,58.00
2019-02-26T11:16:24.887Z,57.00
2019-02-26T11:18:48.519Z,56.00
2019-02-26T11:21:15.249Z,56.40
2019-02-26T11:23:43.871Z,56.70
2019-02-26T11:26:12.560Z,56.10
2019-02-26T11:28:40.531Z,54.80
2019-02-26T11:31:09.093Z,53.60
2019-02-26T11:33:35.999Z,54.60
2019-02-26T11:36:03.494Z,53.40
2019-02-26T11:38:31.361Z,52.90
2019-02-26T11:40:58.159Z,52.90
2019-02-26T11:43:27.105Z,52.70
2019-02-26T11:45:53.529Z,51.70
2019-02-26T11:48:21.255Z,51.40
2019-02-26T11:50:49.019Z,51.80
2019-02-26T11:53:15.696Z,51.50
2019-02-26T11:55:44.157Z,52.40
2019-02-26T11:58:15.413Z,50.90
2019-02-26T12:00:50.401Z,51.00
2019-02-26T12:03:22.706Z,52.10
2019-02-26T12:05:47.460Z,50.80
2019-02-26T12:08:16.707Z,50.20
2019-02-26T12:10:42.795Z,49.40
2019-02-26T12:13:09.523Z,50.00
2019-02-26T12:15:38.520Z,49.60
2019-02-26T12:18:04.785Z,49.20
2019-02-26T12:20:31.510Z,47.20
2019-02-26T12:22:58.163Z,49.20
2019-02-26T12:25:24.984Z,48.70
2019-02-26T12:27:51.762Z,48.00
2019-02-26T12:30:20.833Z,48.60
2019-02-26T12:32:50.037Z,48.80
2019-02-26T12:35:17.952Z,47.10
2019-02-26T12:37:44.601Z,46.50
2019-02-26T12:40:16.661Z,45.50
2019-02-26T12:42:44.372Z,45.90
2019-02-26T12:45:25.950Z,46.20
2019-02-26T12:47:54.497Z,45.60
2019-02-26T12:50:26.064Z,45.00
2019-02-26T12:52:51.625Z,42.90
2019-02-26T12:55:18.460Z,42.20
2019-02-26T12:57:47.134Z,40.90
2019-02-26T13:00:19.923Z,43.10
2019-02-26T13:02:49.397Z,41.80
2019-02-26T13:05:18.871Z,42.10
2019-02-26T13:07:44.916Z,41.30
2019-02-26T13:10:16.844Z,38.90
2019-02-26T13:12:47.171Z,38.00
2019-02-26T13:15:19.057Z,37.70
2019-02-26T13:17:44.500Z,38.20
2019-02-26T13:20:20.907Z,37.00
2019-02-26T13:22:47.694Z,37.70
2019-02-26T13:25:17.143Z,33.80
2019-02-26T13:27:45.299Z,33.70
2019-02-26T13:30:24.322Z,32.00
2019-02-26T13:32:56.337Z,29.50
2019-02-26T13:35:20.085Z,29.50
2019-02-26T13:37:48.729Z,29.50
2019-02-26T13:40:17.496Z,29.80
2019-02-26T13:42:50.090Z,28.90
2019-02-26T13:45:15.909Z,28.60
2019-02-26T13:47:42.843Z,29.80
2019-02-26T13:50:12.427Z,28.20
2019-02-26T13:52:39.141Z,27.50
2019-02-26T13:55:08.232Z,27.00
2019-02-26T13:57:34.872Z,27.20
2019-02-26T14:00:01.989Z,26.30
2019-02-26T14:02:28.733Z,27.00
2019-02-26T14:04:55.401Z,22.70
2019-02-26T14:07:22.037Z,22.80
2019-02-26T14:09:48.730Z,22.40
2019-02-26T14:12:15.722Z,22.00
2019-02-26T14:14:42.361Z,22.30
2019-02-26T14:17:09.164Z,24.10
2019-02-26T14:19:35.804Z,25.30
2019-02-26T14:22:02.520Z,24.40
2019-02-26T14:24:29.219Z,24.20
2019-02-26T14:26:55.897Z,22.30
2019-02-26T14:29:22.801Z,21.90
2019-02-26T14:31:49.492Z,20.90
2019-02-26T14:34:16.296Z,21.40
2019-02-26T14:36:42.948Z,21.50
2019-02-26T14:39:10.427Z,20.80
2019-02-26T14:41:39.261Z,21.20
2019-02-26T14:44:06.172Z,21.10
2019-02-26T14:46:33.309Z,20.60
2019-02-26T14:49:00.105Z,22.00
2019-02-26T14:51:26.996Z,18.40
2019-02-26T14:53:53.756Z,18.10
2019-02-26T14:56:20.523Z,17.80
2019-02-26T14:58:47.335Z,17.50
2019-02-26T15:01:14.133Z,18.40
2019-02-26T15:03:40.837Z,18.00
2019-02-26T15:06:07.779Z,17.90
2019-02-26T15:08:34.412Z,16.80
2019-02-26T15:11:01.196Z,16.50
2019-02-26T15:13:27.894Z,17.00
2019-02-26T15:16:14.306Z,17.80
2019-02-26T15:18:45.189Z,16.80
2019-02-26T15:21:12.051Z,17.90
2019-02-26T15:23:38.692Z,18.20
2019-02-26T15:26:05.393Z,18.40
2019-02-26T15:28:32.120Z,17.90
2019-02-26T15:30:59.018Z,17.90
2019-02-26T15:33:25.669Z,18.40
2019-02-26T15:35:52.351Z,20.10
2019-02-26T15:38:19.120Z,19.10
2019-02-26T15:40:45.916Z,19.40
2019-02-26T15:43:12.587Z,19.90
2019-02-26T15:45:39.376Z,20.00
2019-02-26T15:48:06.144Z,20.70
2019-02-26T15:50:32.826Z,20.40
2019-02-26T15:52:59.597Z,22.00
2019-02-26T15:55:30.244Z,19.80
2019-02-26T15:58:03.067Z,19.80
2019-02-26T16:00:27.079Z,21.50
2019-02-26T16:02:58.746Z,22.30
2019-02-26T16:05:31.581Z,20.90
2019-02-26T16:07:58.292Z,20.50
2019-02-26T16:10:25.062Z,20.50
2019-02-26T16:12:51.788Z,21.30
2019-02-26T16:15:18.436Z,21.50
2019-02-26T16:17:45.198Z,21.90
2019-02-26T16:20:17.277Z,22.20
2019-02-26T16:22:44.352Z,22.40
2019-02-26T16:25:10.987Z,21.50
2019-02-26T16:27:38.406Z,23.00
2019-02-26T16:30:08.720Z,22.20
2019-02-26T16:32:37.377Z,22.60
2019-02-26T16:35:04.524Z,23.00
2019-02-26T16:37:31.182Z,24.30
2019-02-26T16:39:58.174Z,26.50
2019-02-26T16:42:25.866Z,27.80
2019-02-26T16:44:52.680Z,29.70
2019-02-26T16:47:20.491Z,31.50
2019-02-26T16:49:47.562Z,33.00
2019-02-26T16:52:14.234Z,35.20
2019-02-26T16:54:41.497Z,36.00
2019-02-26T16:57:08.248Z,37.80
2019-02-26T16:59:35.020Z,38.70
2019-02-26T17:02:01.919Z,39.50
2019-02-26T17:04:30.855Z,38.50
2019-02-26T17:06:57.508Z,38.40
2019-02-26T17:09:24.278Z,38.90
2019-02-26T17:11:51.048Z,39.30
2019-02-26T17:14:18.017Z,39.80
2019-02-26T17:16:44.725Z,40.30
2019-02-26T17:19:29.896Z,39.80
2019-02-26T17:21:57.101Z,39.40
2019-02-26T17:24:23.729Z,39.00
2019-02-26T17:26:50.366Z,38.00
2019-02-26T17:29:17.760Z,37.50
2019-02-26T17:31:45.715Z,38.00
2019-02-26T17:34:12.408Z,39.80
2019-02-26T17:36:39.079Z,40.40
2019-02-26T17:39:05.952Z,41.60
2019-02-26T17:41:32.607Z,40.60
2019-02-26T17:43:59.722Z,40.70
2019-02-26T17:46:26.407Z,41.00
2019-02-26T17:48:53.173Z,41.20
2019-02-26T17:51:19.946Z,40.50
2019-02-26T17:53:46.606Z,40.60
2019-02-26T17:56:13.371Z,39.60
2019-02-26T17:58:41.715Z,39.50
2019-02-26T18:01:11.066Z,39.80
2019-02-26T18:03:37.359Z,40.00
2019-02-26T18:06:04.129Z,41.30
2019-02-26T18:08:30.778Z,41.00
2019-02-26T18:10:57.472Z,41.50
2019-02-26T18:13:24.284Z,41.40
2019-02-26T18:15:50.952Z,42.30
2019-02-26T18:18:17.652Z,43.00
2019-02-26T18:20:44.286Z,44.90
2019-02-26T18:23:10.939Z,45.80
2019-02-26T18:25:37.630Z,45.10
2019-02-26T18:28:04.288Z,44.30
2019-02-26T18:30:31.096Z,45.20
2019-02-26T18:32:58.905Z,45.40
2019-02-26T18:35:26.000Z,45.30
2019-02-26T18:37:52.764Z,45.60
2019-02-26T18:40:19.624Z,46.70
2019-02-26T18:42:47.087Z,47.70
2019-02-26T18:45:16.141Z,47.30
2019-02-26T18:47:42.918Z,47.20
2019-02-26T18:50:10.216Z,47.60
2019-02-26T18:52:37.108Z,48.60
2019-02-26T18:55:07.448Z,47.70
2019-02-26T18:57:34.100Z,47.40
2019-02-26T19:00:00.844Z,47.70
2019-02-26T19:02:27.525Z,49.40
2019-02-26T19:04:54.268Z,50.50
2019-02-26T19:07:20.957Z,51.20
2019-02-26T19:09:47.685Z,54.00
2019-02-26T19:12:14.338Z,54.50
2019-02-26T19:14:42.842Z,53.90
2019-02-26T19:17:09.644Z,53.30
2019-02-26T19:19:36.336Z,52.50
2019-02-26T19:22:02.971Z,52.10
2019-02-26T19:24:29.682Z,51.60
2019-02-26T19:26:56.779Z,52.70
2019-02-26T19:29:23.477Z,53.80
2019-02-26T19:31:50.141Z,52.80
2019-02-26T19:34:16.864Z,52.70
2019-02-26T19:36:45.472Z,52.10
2019-02-26T19:39:12.292Z,52.50
2019-02-26T19:41:39.045Z,52.30
2019-02-26T19:44:05.827Z,49.70
2019-02-26T19:46:32.476Z,51.50
2019-02-26T19:48:59.234Z,53.30
2019-02-26T19:51:26.058Z,54.00
2019-02-26T19:53:52.724Z,54.30
2019-02-26T19:56:23.342Z,54.30
2019-02-26T19:58:48.010Z,56.10
2019-02-26T20:01:14.682Z,56.80
2019-02-26T20:03:41.483Z,56.80
2019-02-26T20:06:08.168Z,56.90
2019-02-26T20:08:34.785Z,54.40
2019-02-26T20:11:01.476Z,55.60
2019-02-26T20:13:28.199Z,56.20
2019-02-26T20:15:55.429Z,54.60
2019-02-26T20:18:25.846Z,53.80
2019-02-26T20:20:51.037Z,53.30
2019-02-26T20:23:17.790Z,54.00
2019-02-26T20:25:44.483Z,54.00
2019-02-26T20:28:11.099Z,55.20
2019-02-26T20:30:37.886Z,59.10
2019-02-26T20:33:04.841Z,59.20
2019-02-26T20:35:31.800Z,59.30
2019-02-26T20:37:58.859Z,58.40
2019-02-26T20:40:25.941Z,56.60
2019-02-26T20:42:52.765Z,56.20
2019-02-26T20:45:22.648Z,56.60
2019-02-26T20:47:49.888Z,56.00
2019-02-26T20:50:19.941Z,56.20
2019-02-26T20:52:45.058Z,58.20
2019-02-26T20:55:20.906Z,58.00
2019-02-26T20:57:47.688Z,57.30
2019-02-26T21:00:18.154Z,57.00
2019-02-26T21:02:44.809Z,56.70
2019-02-26T21:05:11.780Z,57.20
2019-02-26T21:07:38.465Z,56.70
2019-02-26T21:10:14.961Z,56.50
2019-02-26T21:12:39.280Z,56.00
2019-02-26T21:15:08.992Z,55.90
2019-02-26T21:17:35.629Z,56.10
2019-02-26T21:20:02.698Z,56.00
2019-02-26T21:22:29.357Z,55.90
2019-02-26T21:24:56.018Z,56.50
2019-02-26T21:27:23.813Z,56.40
2019-02-26T21:29:51.239Z,56.60
2019-02-26T21:32:17.994Z,58.80
2019-02-26T21:34:47.318Z,59.00
2019-02-26T21:37:13.385Z,58.60
2019-02-26T21:39:43.556Z,58.30
2019-02-26T21:42:08.964Z,58.30
2019-02-26T21:44:35.641Z,58.40
2019-02-26T21:47:02.390Z,58.30
2019-02-26T21:49:29.265Z,59.30
2019-02-26T21:51:55.918Z,59.70
2019-02-26T21:54:24.820Z,60.60
2019-02-26T21:56:51.136Z,61.70
2019-02-26T21:59:17.912Z,60.00
2019-02-26T22:01:46.152Z,59.50
2019-02-26T22:04:13.141Z,59.40
2019-02-26T22:06:40.010Z,59.80
2019-02-26T22:09:06.692Z,59.50
2019-02-26T22:11:33.344Z,59.90
2019-02-26T22:14:02.815Z,60.70
2019-02-26T22:16:28.609Z,60.90
2019-02-26T22:18:55.425Z,60.20
2019-02-26T22:21:22.140Z,64.20
2019-02-26T22:23:48.873Z,66.70
2019-02-26T22:26:15.644Z,65.70
2019-02-26T22:28:42.662Z,63.30
2019-02-26T22:31:09.500Z,67.10
2019-02-26T22:33:36.289Z,65.00
2019-02-26T22:36:02.928Z,63.80
2019-02-26T22:38:29.733Z,63.10
2019-02-26T22:40:56.329Z,63.00
2019-02-26T22:43:23.030Z,62.70
2019-02-26T22:45:49.704Z,62.90
2019-02-26T22:48:16.392Z,63.20
2019-02-26T22:50:43.014Z,63.30
2019-02-26T22:53:09.675Z,65.90
2019-02-26T22:55:36.377Z,68.40
2019-02-26T22:58:03.395Z,67.50
2019-02-26T23:00:49.222Z,65.00
2019-02-26T23:03:15.593Z,64.30
2019-02-26T23:05:42.525Z,65.00
2019-02-26T23:08:09.586Z,65.20
2019-02-26T23:10:38.277Z,64.40
2019-02-26T23:13:05.290Z,64.10
2019-02-26T23:15:32.053Z,64.90
2019-02-26T23:17:58.987Z,64.30
2019-02-26T23:20:26.616Z,64.30
2019-02-26T23:22:53.736Z,64.90
2019-02-26T23:25:20.605Z,68.80
2019-02-26T23:27:48.702Z,68.90
2019-02-26T23:30:15.689Z,66.60
2019-02-26T23:32:42.370Z,65.70
2019-02-26T23:35:13.376Z,65.20
2019-02-26T23:37:40.046Z,69.10
2019-02-26T23:40:09.186Z,72.20
2019-02-26T23:42:38.591Z,70.40
2019-02-26T23:45:07.193Z,71.00
2019-02-26T23:47:35.104Z,69.30
2019-02-26T23:50:04.395Z,67.90
2019-02-26T23:52:31.059Z,67.60
2019-02-26T23:54:57.764Z,67.50
2019-02-26T23:57:25.059Z,67.60
2019-02-26T23:59:52.479Z,68.40
